sensor_id;sensor_type;location;lat;lon;timestamp;P1;durP1;ratioP1;P2;durP2;ratioP2
29358;SDS011;16347;53.232;6.556;2022-09-09T00:00:15;8.93;;;5.35;;
29358;SDS011;16347;53.232;6.556;2022-09-09T00:02:54;12.40;;;6.68;;
29358;SDS011;16347;53.232;6.556;2022-09-09T00:05:41;11.38;;;5.25;;
29358;SDS011;16347;53.232;6.556;2022-09-09T00:08:32;14.05;;;5.53;;
29358;SDS011;16347;53.232;6.556;2022-09-09T00:11:24;8.75;;;5.47;;
29358;SDS011;16347;53.232;6.556;2022-09-09T00:14:08;10.30;;;5.80;;
29358;SDS011;16347;53.232;6.556;2022-09-09T00:16:58;15.73;;;5.82;;
29358;SDS011;16347;53.232;6.556;2022-09-09T00:19:41;10.93;;;6.15;;
29358;SDS011;16347;53.232;6.556;2022-09-09T00:22:29;11.20;;;5.95;;
29358;SDS011;16347;53.232;6.556;2022-09-09T00:25:03;14.52;;;6.85;;
29358;SDS011;16347;53.232;6.556;2022-09-09T00:27:40;12.07;;;6.35;;
29358;SDS011;16347;53.232;6.556;2022-09-09T00:30:16;10.40;;;6.32;;
29358;SDS011;16347;53.232;6.556;2022-09-09T00:32:48;16.17;;;7.10;;
29358;SDS011;16347;53.232;6.556;2022-09-09T00:35:29;13.35;;;7.05;;
29358;SDS011;16347;53.232;6.556;2022-09-09T00:38:05;10.30;;;6.80;;
29358;SDS011;16347;53.232;6.556;2022-09-09T00:40:46;11.70;;;6.47;;
29358;SDS011;16347;53.232;6.556;2022-09-09T00:43:32;18.75;;;6.30;;
29358;SDS011;16347;53.232;6.556;2022-09-09T00:46:16;16.50;;;7.68;;
29358;SDS011;16347;53.232;6.556;2022-09-09T00:49:07;11.55;;;7.20;;
29358;SDS011;16347;53.232;6.556;2022-09-09T00:51:56;13.07;;;7.03;;
29358;SDS011;16347;53.232;6.556;2022-09-09T00:54:48;13.85;;;7.30;;
29358;SDS011;16347;53.232;6.556;2022-09-09T00:57:28;11.75;;;6.82;;
29358;SDS011;16347;53.232;6.556;2022-09-09T01:03:02;9.55;;;6.10;;
29358;SDS011;16347;53.232;6.556;2022-09-09T01:05:54;17.00;;;7.28;;
29358;SDS011;16347;53.232;6.556;2022-09-09T01:08:39;12.20;;;6.28;;
29358;SDS011;16347;53.232;6.556;2022-09-09T01:11:24;10.68;;;6.43;;
29358;SDS011;16347;53.232;6.556;2022-09-09T01:14:01;13.13;;;6.32;;
29358;SDS011;16347;53.232;6.556;2022-09-09T01:16:52;10.80;;;6.25;;
29358;SDS011;16347;53.232;6.556;2022-09-09T01:19:32;9.70;;;6.15;;
29358;SDS011;16347;53.232;6.556;2022-09-09T01:22:20;12.45;;;6.00;;
29358;SDS011;16347;53.232;6.556;2022-09-09T01:25:09;19.13;;;6.13;;
29358;SDS011;16347;53.232;6.556;2022-09-09T01:28:08;10.48;;;6.22;;
29358;SDS011;16347;53.232;6.556;2022-09-09T01:30:47;13.95;;;6.07;;
29358;SDS011;16347;53.232;6.556;2022-09-09T01:33:22;8.18;;;5.50;;
29358;SDS011;16347;53.232;6.556;2022-09-09T01:36:24;21.33;;;6.03;;
29358;SDS011;16347;53.232;6.556;2022-09-09T01:39:05;9.65;;;5.70;;
29358;SDS011;16347;53.232;6.556;2022-09-09T01:41:38;13.07;;;5.50;;
29358;SDS011;16347;53.232;6.556;2022-09-09T01:44:32;8.93;;;5.53;;
29358;SDS011;16347;53.232;6.556;2022-09-09T01:47:08;11.43;;;5.63;;
29358;SDS011;16347;53.232;6.556;2022-09-09T01:50:07;8.77;;;5.07;;
29358;SDS011;16347;53.232;6.556;2022-09-09T01:52:48;14.43;;;5.80;;
29358;SDS011;16347;53.232;6.556;2022-09-09T01:55:33;9.25;;;5.55;;
29358;SDS011;16347;53.232;6.556;2022-09-09T01:58:22;11.93;;;5.40;;
29358;SDS011;16347;53.232;6.556;2022-09-09T02:01:28;11.90;;;6.50;;
29358;SDS011;16347;53.232;6.556;2022-09-09T02:04:37;13.13;;;6.32;;
29358;SDS011;16347;53.232;6.556;2022-09-09T02:07:22;19.38;;;6.25;;
29358;SDS011;16347;53.232;6.556;2022-09-09T02:10:25;18.45;;;6.82;;
29358;SDS011;16347;53.232;6.556;2022-09-09T02:13:29;10.38;;;6.63;;
29358;SDS011;16347;53.232;6.556;2022-09-09T02:16:17;10.45;;;6.53;;
29358;SDS011;16347;53.232;6.556;2022-09-09T02:19:00;16.02;;;7.63;;
29358;SDS011;16347;53.232;6.556;2022-09-09T02:22:06;12.02;;;6.70;;
29358;SDS011;16347;53.232;6.556;2022-09-09T02:24:43;13.77;;;7.97;;
29358;SDS011;16347;53.232;6.556;2022-09-09T02:27:21;15.70;;;7.82;;
29358;SDS011;16347;53.232;6.556;2022-09-09T02:29:53;15.25;;;7.90;;
29358;SDS011;16347;53.232;6.556;2022-09-09T02:35:51;12.93;;;8.02;;
29358;SDS011;16347;53.232;6.556;2022-09-09T02:38:32;12.82;;;7.95;;
29358;SDS011;16347;53.232;6.556;2022-09-09T02:41:08;18.38;;;8.35;;
29358;SDS011;16347;53.232;6.556;2022-09-09T02:43:44;17.13;;;8.63;;
29358;SDS011;16347;53.232;6.556;2022-09-09T02:46:21;18.73;;;8.70;;
29358;SDS011;16347;53.232;6.556;2022-09-09T02:49:06;13.02;;;8.45;;
29358;SDS011;16347;53.232;6.556;2022-09-09T02:51:45;14.88;;;8.15;;
29358;SDS011;16347;53.232;6.556;2022-09-09T02:57:21;13.60;;;8.73;;
29358;SDS011;16347;53.232;6.556;2022-09-09T03:00:07;13.73;;;8.40;;
29358;SDS011;16347;53.232;6.556;2022-09-09T03:03:03;14.57;;;8.48;;
29358;SDS011;16347;53.232;6.556;2022-09-09T03:05:40;15.32;;;7.60;;
29358;SDS011;16347;53.232;6.556;2022-09-09T03:08:15;16.13;;;8.93;;
29358;SDS011;16347;53.232;6.556;2022-09-09T03:10:50;12.75;;;8.00;;
29358;SDS011;16347;53.232;6.556;2022-09-09T03:13:21;12.55;;;8.05;;
29358;SDS011;16347;53.232;6.556;2022-09-09T03:15:49;16.00;;;7.70;;
29358;SDS011;16347;53.232;6.556;2022-09-09T03:18:19;15.20;;;8.00;;
29358;SDS011;16347;53.232;6.556;2022-09-09T03:20:50;13.50;;;7.30;;
29358;SDS011;16347;53.232;6.556;2022-09-09T03:23:22;11.98;;;7.22;;
29358;SDS011;16347;53.232;6.556;2022-09-09T03:25:51;10.98;;;8.07;;
29358;SDS011;16347;53.232;6.556;2022-09-09T03:28:29;14.25;;;7.95;;
29358;SDS011;16347;53.232;6.556;2022-09-09T03:30:59;16.08;;;7.65;;
29358;SDS011;16347;53.232;6.556;2022-09-09T03:33:32;23.02;;;7.35;;
29358;SDS011;16347;53.232;6.556;2022-09-09T03:36:00;13.63;;;7.35;;
29358;SDS011;16347;53.232;6.556;2022-09-09T03:38:30;14.88;;;7.07;;
29358;SDS011;16347;53.232;6.556;2022-09-09T03:41:00;10.25;;;6.28;;
29358;SDS011;16347;53.232;6.556;2022-09-09T03:43:29;12.88;;;7.00;;
29358;SDS011;16347;53.232;6.556;2022-09-09T03:45:57;12.63;;;6.18;;
29358;SDS011;16347;53.232;6.556;2022-09-09T03:48:27;14.35;;;7.90;;
29358;SDS011;16347;53.232;6.556;2022-09-09T03:50:56;13.20;;;6.10;;
29358;SDS011;16347;53.232;6.556;2022-09-09T03:53:28;12.77;;;6.47;;
29358;SDS011;16347;53.232;6.556;2022-09-09T03:55:58;9.05;;;5.50;;
29358;SDS011;16347;53.232;6.556;2022-09-09T03:58:28;8.73;;;5.03;;
29358;SDS011;16347;53.232;6.556;2022-09-09T04:01:02;8.88;;;4.95;;
29358;SDS011;16347;53.232;6.556;2022-09-09T04:03:32;7.55;;;4.15;;
29358;SDS011;16347;53.232;6.556;2022-09-09T04:06:01;9.32;;;3.85;;
29358;SDS011;16347;53.232;6.556;2022-09-09T04:08:33;12.10;;;3.95;;
29358;SDS011;16347;53.232;6.556;2022-09-09T04:11:08;8.85;;;3.65;;
29358;SDS011;16347;53.232;6.556;2022-09-09T04:13:42;9.00;;;3.55;;
29358;SDS011;16347;53.232;6.556;2022-09-09T04:16:19;5.78;;;2.72;;
29358;SDS011;16347;53.232;6.556;2022-09-09T04:18:50;7.57;;;2.95;;
29358;SDS011;16347;53.232;6.556;2022-09-09T04:21:25;8.02;;;3.35;;
29358;SDS011;16347;53.232;6.556;2022-09-09T04:24:08;6.45;;;3.03;;
29358;SDS011;16347;53.232;6.556;2022-09-09T04:27:21;10.77;;;3.03;;
29358;SDS011;16347;53.232;6.556;2022-09-09T04:30:09;6.25;;;3.15;;
29358;SDS011;16347;53.232;6.556;2022-09-09T04:35:49;8.80;;;3.40;;
29358;SDS011;16347;53.232;6.556;2022-09-09T04:38:34;10.13;;;2.67;;
29358;SDS011;16347;53.232;6.556;2022-09-09T04:41:11;5.47;;;2.70;;
29358;SDS011;16347;53.232;6.556;2022-09-09T04:43:44;5.93;;;2.80;;
29358;SDS011;16347;53.232;6.556;2022-09-09T04:46:17;6.33;;;2.80;;
29358;SDS011;16347;53.232;6.556;2022-09-09T04:48:50;7.63;;;3.05;;
29358;SDS011;16347;53.232;6.556;2022-09-09T04:51:44;10.35;;;3.20;;
29358;SDS011;16347;53.232;6.556;2022-09-09T04:54:22;9.80;;;3.55;;
29358;SDS011;16347;53.232;6.556;2022-09-09T04:56:55;9.10;;;4.20;;
29358;SDS011;16347;53.232;6.556;2022-09-09T04:59:28;9.32;;;3.58;;
29358;SDS011;16347;53.232;6.556;2022-09-09T05:02:03;9.00;;;4.03;;
29358;SDS011;16347;53.232;6.556;2022-09-09T05:04:35;10.63;;;3.97;;
29358;SDS011;16347;53.232;6.556;2022-09-09T05:07:08;8.13;;;4.20;;
29358;SDS011;16347;53.232;6.556;2022-09-09T05:09:41;12.60;;;4.68;;
29358;SDS011;16347;53.232;6.556;2022-09-09T05:12:19;8.93;;;4.35;;
29358;SDS011;16347;53.232;6.556;2022-09-09T05:14:52;8.25;;;4.60;;
29358;SDS011;16347;53.232;6.556;2022-09-09T05:17:28;9.38;;;4.43;;
29358;SDS011;16347;53.232;6.556;2022-09-09T05:20:04;10.18;;;5.55;;
29358;SDS011;16347;53.232;6.556;2022-09-09T05:22:52;10.05;;;5.22;;
29358;SDS011;16347;53.232;6.556;2022-09-09T05:25:31;9.27;;;5.22;;
29358;SDS011;16347;53.232;6.556;2022-09-09T05:31:07;10.48;;;5.68;;
29358;SDS011;16347;53.232;6.556;2022-09-09T05:33:58;7.47;;;5.50;;
29358;SDS011;16347;53.232;6.556;2022-09-09T05:36:52;12.98;;;5.90;;
29358;SDS011;16347;53.232;6.556;2022-09-09T05:39:24;11.70;;;6.25;;
29358;SDS011;16347;53.232;6.556;2022-09-09T05:41:56;13.43;;;6.03;;
29358;SDS011;16347;53.232;6.556;2022-09-09T05:44:34;9.85;;;6.28;;
29358;SDS011;16347;53.232;6.556;2022-09-09T05:47:06;12.68;;;7.22;;
29358;SDS011;16347;53.232;6.556;2022-09-09T05:49:45;11.95;;;6.88;;
29358;SDS011;16347;53.232;6.556;2022-09-09T05:52:16;13.18;;;7.47;;
29358;SDS011;16347;53.232;6.556;2022-09-09T05:54:47;8.88;;;6.03;;
29358;SDS011;16347;53.232;6.556;2022-09-09T05:57:19;12.25;;;7.88;;
29358;SDS011;16347;53.232;6.556;2022-09-09T05:59:57;16.02;;;7.57;;
29358;SDS011;16347;53.232;6.556;2022-09-09T06:02:40;14.43;;;7.78;;
29358;SDS011;16347;53.232;6.556;2022-09-09T06:05:13;10.90;;;7.60;;
29358;SDS011;16347;53.232;6.556;2022-09-09T06:07:43;12.95;;;7.53;;
29358;SDS011;16347;53.232;6.556;2022-09-09T06:10:12;16.58;;;7.85;;
29358;SDS011;16347;53.232;6.556;2022-09-09T06:12:47;10.13;;;7.28;;
29358;SDS011;16347;53.232;6.556;2022-09-09T06:15:24;15.82;;;8.52;;
29358;SDS011;16347;53.232;6.556;2022-09-09T06:17:55;15.23;;;8.13;;
29358;SDS011;16347;53.232;6.556;2022-09-09T06:20:27;10.98;;;6.85;;
29358;SDS011;16347;53.232;6.556;2022-09-09T06:23:03;14.48;;;7.63;;
29358;SDS011;16347;53.232;6.556;2022-09-09T06:25:41;10.90;;;7.47;;
29358;SDS011;16347;53.232;6.556;2022-09-09T06:28:13;12.45;;;7.00;;
29358;SDS011;16347;53.232;6.556;2022-09-09T06:31:01;10.65;;;7.30;;
29358;SDS011;16347;53.232;6.556;2022-09-09T06:33:38;10.57;;;6.70;;
29358;SDS011;16347;53.232;6.556;2022-09-09T06:36:13;16.20;;;7.13;;
29358;SDS011;16347;53.232;6.556;2022-09-09T06:38:53;14.05;;;6.40;;
29358;SDS011;16347;53.232;6.556;2022-09-09T06:41:27;12.85;;;6.13;;
29358;SDS011;16347;53.232;6.556;2022-09-09T06:47:18;13.32;;;6.22;;
29358;SDS011;16347;53.232;6.556;2022-09-09T06:49:49;11.05;;;6.00;;
29358;SDS011;16347;53.232;6.556;2022-09-09T06:52:23;11.75;;;6.45;;
29358;SDS011;16347;53.232;6.556;2022-09-09T06:54:56;9.65;;;5.97;;
29358;SDS011;16347;53.232;6.556;2022-09-09T06:57:28;10.63;;;6.25;;
29358;SDS011;16347;53.232;6.556;2022-09-09T07:00:18;8.85;;;6.30;;
29358;SDS011;16347;53.232;6.556;2022-09-09T07:02:53;14.55;;;6.30;;
29358;SDS011;16347;53.232;6.556;2022-09-09T07:05:36;9.77;;;5.22;;
29358;SDS011;16347;53.232;6.556;2022-09-09T07:08:26;12.48;;;6.90;;
29358;SDS011;16347;53.232;6.556;2022-09-09T07:11:06;11.45;;;5.55;;
29358;SDS011;16347;53.232;6.556;2022-09-09T07:13:41;12.00;;;5.78;;
29358;SDS011;16347;53.232;6.556;2022-09-09T07:16:20;9.77;;;5.65;;
29358;SDS011;16347;53.232;6.556;2022-09-09T07:19:10;11.60;;;5.90;;
29358;SDS011;16347;53.232;6.556;2022-09-09T07:21:55;7.72;;;5.38;;
29358;SDS011;16347;53.232;6.556;2022-09-09T07:24:26;7.72;;;5.22;;
29358;SDS011;16347;53.232;6.556;2022-09-09T07:26:58;9.23;;;6.05;;
29358;SDS011;16347;53.232;6.556;2022-09-09T07:29:30;7.25;;;5.25;;
29358;SDS011;16347;53.232;6.556;2022-09-09T07:31:59;11.23;;;5.55;;
29358;SDS011;16347;53.232;6.556;2022-09-09T07:34:36;6.72;;;4.60;;
29358;SDS011;16347;53.232;6.556;2022-09-09T07:37:05;10.60;;;5.55;;
29358;SDS011;16347;53.232;6.556;2022-09-09T07:39:35;10.57;;;5.70;;
29358;SDS011;16347;53.232;6.556;2022-09-09T07:42:07;8.73;;;5.18;;
29358;SDS011;16347;53.232;6.556;2022-09-09T07:44:38;8.52;;;5.40;;
29358;SDS011;16347;53.232;6.556;2022-09-09T07:47:12;11.97;;;5.73;;
29358;SDS011;16347;53.232;6.556;2022-09-09T07:49:51;11.05;;;5.10;;
29358;SDS011;16347;53.232;6.556;2022-09-09T07:52:26;10.25;;;5.55;;
29358;SDS011;16347;53.232;6.556;2022-09-09T07:54:59;8.52;;;5.53;;
29358;SDS011;16347;53.232;6.556;2022-09-09T07:57:30;8.32;;;5.30;;
29358;SDS011;16347;53.232;6.556;2022-09-09T08:00:02;10.70;;;5.43;;
29358;SDS011;16347;53.232;6.556;2022-09-09T08:02:38;8.85;;;5.50;;
29358;SDS011;16347;53.232;6.556;2022-09-09T08:05:16;11.63;;;5.50;;
29358;SDS011;16347;53.232;6.556;2022-09-09T08:07:48;14.65;;;5.53;;
29358;SDS011;16347;53.232;6.556;2022-09-09T08:10:20;13.15;;;5.40;;
29358;SDS011;16347;53.232;6.556;2022-09-09T08:12:52;9.20;;;4.90;;
29358;SDS011;16347;53.232;6.556;2022-09-09T08:15:43;10.52;;;5.40;;
29358;SDS011;16347;53.232;6.556;2022-09-09T08:18:20;29.70;;;13.45;;
29358;SDS011;16347;53.232;6.556;2022-09-09T08:21:00;12.07;;;6.90;;
29358;SDS011;16347;53.232;6.556;2022-09-09T08:23:36;16.05;;;7.90;;
29358;SDS011;16347;53.232;6.556;2022-09-09T08:26:10;10.45;;;4.93;;
29358;SDS011;16347;53.232;6.556;2022-09-09T08:28:42;10.25;;;5.80;;
29358;SDS011;16347;53.232;6.556;2022-09-09T08:31:13;11.98;;;5.70;;
29358;SDS011;16347;53.232;6.556;2022-09-09T08:33:45;15.75;;;7.55;;
29358;SDS011;16347;53.232;6.556;2022-09-09T08:36:22;10.00;;;5.18;;
29358;SDS011;16347;53.232;6.556;2022-09-09T08:38:52;14.13;;;5.93;;
29358;SDS011;16347;53.232;6.556;2022-09-09T08:41:27;13.60;;;5.13;;
29358;SDS011;16347;53.232;6.556;2022-09-09T08:44:21;12.60;;;5.28;;
29358;SDS011;16347;53.232;6.556;2022-09-09T08:47:02;11.63;;;5.30;;
29358;SDS011;16347;53.232;6.556;2022-09-09T08:49:43;15.85;;;4.78;;
29358;SDS011;16347;53.232;6.556;2022-09-09T08:52:29;9.70;;;4.80;;
29358;SDS011;16347;53.232;6.556;2022-09-09T08:55:02;20.55;;;9.18;;
29358;SDS011;16347;53.232;6.556;2022-09-09T08:57:42;15.02;;;6.60;;
29358;SDS011;16347;53.232;6.556;2022-09-09T09:00:13;9.23;;;4.93;;
29358;SDS011;16347;53.232;6.556;2022-09-09T09:02:46;14.15;;;5.10;;
29358;SDS011;16347;53.232;6.556;2022-09-09T09:05:25;9.60;;;4.03;;
29358;SDS011;16347;53.232;6.556;2022-09-09T09:08:03;11.65;;;4.88;;
29358;SDS011;16347;53.232;6.556;2022-09-09T09:10:44;11.50;;;4.55;;
29358;SDS011;16347;53.232;6.556;2022-09-09T09:13:20;9.85;;;4.30;;
29358;SDS011;16347;53.232;6.556;2022-09-09T09:16:00;7.78;;;4.45;;
29358;SDS011;16347;53.232;6.556;2022-09-09T09:18:34;10.00;;;4.72;;
29358;SDS011;16347;53.232;6.556;2022-09-09T09:21:07;12.40;;;5.72;;
29358;SDS011;16347;53.232;6.556;2022-09-09T09:23:45;12.10;;;4.78;;
29358;SDS011;16347;53.232;6.556;2022-09-09T09:26:20;11.50;;;5.40;;
29358;SDS011;16347;53.232;6.556;2022-09-09T09:28:52;8.65;;;4.32;;
29358;SDS011;16347;53.232;6.556;2022-09-09T09:31:25;7.77;;;4.17;;
29358;SDS011;16347;53.232;6.556;2022-09-09T09:33:57;7.22;;;3.95;;
29358;SDS011;16347;53.232;6.556;2022-09-09T09:36:33;10.75;;;4.32;;
29358;SDS011;16347;53.232;6.556;2022-09-09T09:39:21;10.18;;;4.82;;
29358;SDS011;16347;53.232;6.556;2022-09-09T09:42:13;11.35;;;4.28;;
29358;SDS011;16347;53.232;6.556;2022-09-09T09:44:55;14.35;;;4.13;;
29358;SDS011;16347;53.232;6.556;2022-09-09T09:47:36;9.07;;;3.65;;
29358;SDS011;16347;53.232;6.556;2022-09-09T09:50:18;9.77;;;3.78;;
29358;SDS011;16347;53.232;6.556;2022-09-09T09:52:54;9.00;;;3.38;;
29358;SDS011;16347;53.232;6.556;2022-09-09T09:55:30;6.72;;;3.25;;
29358;SDS011;16347;53.232;6.556;2022-09-09T09:58:04;14.48;;;3.88;;
29358;SDS011;16347;53.232;6.556;2022-09-09T10:00:53;12.50;;;3.47;;
29358;SDS011;16347;53.232;6.556;2022-09-09T10:03:30;11.60;;;3.15;;
29358;SDS011;16347;53.232;6.556;2022-09-09T10:06:07;10.10;;;4.22;;
29358;SDS011;16347;53.232;6.556;2022-09-09T10:08:44;9.15;;;4.32;;
29358;SDS011;16347;53.232;6.556;2022-09-09T10:11:23;10.95;;;3.60;;
29358;SDS011;16347;53.232;6.556;2022-09-09T10:14:05;9.35;;;3.05;;
29358;SDS011;16347;53.232;6.556;2022-09-09T10:16:58;10.98;;;3.55;;
29358;SDS011;16347;53.232;6.556;2022-09-09T10:19:50;10.77;;;3.28;;
29358;SDS011;16347;53.232;6.556;2022-09-09T10:22:33;16.67;;;3.53;;
29358;SDS011;16347;53.232;6.556;2022-09-09T10:25:19;12.15;;;2.72;;
29358;SDS011;16347;53.232;6.556;2022-09-09T10:28:07;12.43;;;3.42;;
29358;SDS011;16347;53.232;6.556;2022-09-09T10:30:49;15.45;;;3.13;;
29358;SDS011;16347;53.232;6.556;2022-09-09T10:33:28;15.20;;;2.95;;
29358;SDS011;16347;53.232;6.556;2022-09-09T10:36:20;11.43;;;2.80;;
29358;SDS011;16347;53.232;6.556;2022-09-09T10:39:00;12.82;;;2.80;;
29358;SDS011;16347;53.232;6.556;2022-09-09T10:41:45;8.13;;;2.50;;
29358;SDS011;16347;53.232;6.556;2022-09-09T10:44:34;13.80;;;2.85;;
29358;SDS011;16347;53.232;6.556;2022-09-09T10:47:29;8.85;;;2.30;;
29358;SDS011;16347;53.232;6.556;2022-09-09T10:50:40;11.73;;;2.03;;
29358;SDS011;16347;53.232;6.556;2022-09-09T10:53:45;9.90;;;2.10;;
29358;SDS011;16347;53.232;6.556;2022-09-09T10:56:25;11.35;;;1.77;;
29358;SDS011;16347;53.232;6.556;2022-09-09T10:58:58;6.57;;;1.63;;
29358;SDS011;16347;53.232;6.556;2022-09-09T11:01:33;9.93;;;2.03;;
29358;SDS011;16347;53.232;6.556;2022-09-09T11:04:13;12.82;;;2.80;;
29358;SDS011;16347;53.232;6.556;2022-09-09T11:06:49;13.52;;;2.47;;
29358;SDS011;16347;53.232;6.556;2022-09-09T11:09:23;13.90;;;1.83;;
29358;SDS011;16347;53.232;6.556;2022-09-09T11:11:57;12.48;;;1.63;;
29358;SDS011;16347;53.232;6.556;2022-09-09T11:14:30;8.83;;;2.10;;
29358;SDS011;16347;53.232;6.556;2022-09-09T11:17:08;13.05;;;2.13;;
29358;SDS011;16347;53.232;6.556;2022-09-09T11:19:44;10.88;;;1.48;;
29358;SDS011;16347;53.232;6.556;2022-09-09T11:22:17;10.05;;;1.75;;
29358;SDS011;16347;53.232;6.556;2022-09-09T11:24:59;4.15;;;1.60;;
29358;SDS011;16347;53.232;6.556;2022-09-09T11:27:36;6.70;;;1.35;;
29358;SDS011;16347;53.232;6.556;2022-09-09T11:30:16;6.68;;;1.70;;
29358;SDS011;16347;53.232;6.556;2022-09-09T11:33:16;10.18;;;1.70;;
29358;SDS011;16347;53.232;6.556;2022-09-09T11:36:16;7.25;;;1.95;;
29358;SDS011;16347;53.232;6.556;2022-09-09T11:39:33;8.85;;;1.50;;
29358;SDS011;16347;53.232;6.556;2022-09-09T11:42:18;8.23;;;1.95;;
29358;SDS011;16347;53.232;6.556;2022-09-09T11:44:53;7.70;;;1.92;;
29358;SDS011;16347;53.232;6.556;2022-09-09T11:47:27;11.10;;;1.70;;
29358;SDS011;16347;53.232;6.556;2022-09-09T11:50:09;10.13;;;1.80;;
29358;SDS011;16347;53.232;6.556;2022-09-09T11:53:05;5.50;;;1.80;;
29358;SDS011;16347;53.232;6.556;2022-09-09T11:56:04;6.43;;;1.63;;
29358;SDS011;16347;53.232;6.556;2022-09-09T11:58:37;6.78;;;2.17;;
29358;SDS011;16347;53.232;6.556;2022-09-09T12:01:15;10.02;;;2.15;;
29358;SDS011;16347;53.232;6.556;2022-09-09T12:04:06;7.15;;;2.58;;
29358;SDS011;16347;53.232;6.556;2022-09-09T12:07:03;8.38;;;1.55;;
29358;SDS011;16347;53.232;6.556;2022-09-09T12:09:55;14.20;;;1.98;;
29358;SDS011;16347;53.232;6.556;2022-09-09T12:12:30;13.30;;;2.17;;
29358;SDS011;16347;53.232;6.556;2022-09-09T12:15:17;8.10;;;1.50;;
29358;SDS011;16347;53.232;6.556;2022-09-09T12:17:51;5.80;;;1.65;;
29358;SDS011;16347;53.232;6.556;2022-09-09T12:20:33;9.25;;;2.28;;
29358;SDS011;16347;53.232;6.556;2022-09-09T12:23:25;6.45;;;1.50;;
29358;SDS011;16347;53.232;6.556;2022-09-09T12:26:20;10.23;;;2.33;;
29358;SDS011;16347;53.232;6.556;2022-09-09T12:29:01;4.97;;;1.50;;
29358;SDS011;16347;53.232;6.556;2022-09-09T12:31:39;8.38;;;1.80;;
29358;SDS011;16347;53.232;6.556;2022-09-09T12:34:15;8.52;;;1.52;;
29358;SDS011;16347;53.232;6.556;2022-09-09T12:36:50;10.27;;;1.85;;
29358;SDS011;16347;53.232;6.556;2022-09-09T12:39:30;6.45;;;1.70;;
29358;SDS011;16347;53.232;6.556;2022-09-09T12:42:14;4.00;;;1.48;;
29358;SDS011;16347;53.232;6.556;2022-09-09T12:44:53;6.70;;;1.15;;
29358;SDS011;16347;53.232;6.556;2022-09-09T12:47:38;11.93;;;1.70;;
29358;SDS011;16347;53.232;6.556;2022-09-09T12:50:21;8.07;;;1.67;;
29358;SDS011;16347;53.232;6.556;2022-09-09T12:52:52;4.28;;;1.42;;
29358;SDS011;16347;53.232;6.556;2022-09-09T12:55:29;7.78;;;1.40;;
29358;SDS011;16347;53.232;6.556;2022-09-09T12:58:03;7.20;;;1.55;;
29358;SDS011;16347;53.232;6.556;2022-09-09T13:00:34;5.43;;;1.48;;
29358;SDS011;16347;53.232;6.556;2022-09-09T13:03:14;9.13;;;1.83;;
29358;SDS011;16347;53.232;6.556;2022-09-09T13:05:47;10.40;;;1.55;;
29358;SDS011;16347;53.232;6.556;2022-09-09T13:08:17;7.50;;;1.60;;
29358;SDS011;16347;53.232;6.556;2022-09-09T13:10:51;10.93;;;2.03;;
29358;SDS011;16347;53.232;6.556;2022-09-09T13:13:31;5.32;;;1.35;;
29358;SDS011;16347;53.232;6.556;2022-09-09T13:16:05;11.45;;;1.60;;
29358;SDS011;16347;53.232;6.556;2022-09-09T13:18:39;7.95;;;1.58;;
29358;SDS011;16347;53.232;6.556;2022-09-09T13:24:23;8.00;;;1.85;;
29358;SDS011;16347;53.232;6.556;2022-09-09T13:27:20;5.80;;;1.40;;
29358;SDS011;16347;53.232;6.556;2022-09-09T13:29:55;10.73;;;2.05;;
29358;SDS011;16347;53.232;6.556;2022-09-09T13:32:26;8.73;;;1.55;;
29358;SDS011;16347;53.232;6.556;2022-09-09T13:34:59;7.07;;;1.63;;
29358;SDS011;16347;53.232;6.556;2022-09-09T13:37:32;4.25;;;1.20;;
29358;SDS011;16347;53.232;6.556;2022-09-09T13:40:06;7.20;;;1.63;;
29358;SDS011;16347;53.232;6.556;2022-09-09T13:42:50;6.65;;;1.77;;
29358;SDS011;16347;53.232;6.556;2022-09-09T13:45:22;7.78;;;1.98;;
29358;SDS011;16347;53.232;6.556;2022-09-09T13:47:54;9.75;;;2.47;;
29358;SDS011;16347;53.232;6.556;2022-09-09T13:50:25;9.57;;;2.35;;
29358;SDS011;16347;53.232;6.556;2022-09-09T13:52:55;8.45;;;1.42;;
29358;SDS011;16347;53.232;6.556;2022-09-09T13:55:28;9.80;;;1.60;;
29358;SDS011;16347;53.232;6.556;2022-09-09T13:58:02;10.05;;;1.90;;
29358;SDS011;16347;53.232;6.556;2022-09-09T14:00:33;5.10;;;1.73;;
29358;SDS011;16347;53.232;6.556;2022-09-09T14:03:03;10.50;;;1.42;;
29358;SDS011;16347;53.232;6.556;2022-09-09T14:05:32;4.88;;;1.55;;
29358;SDS011;16347;53.232;6.556;2022-09-09T14:08:04;8.88;;;1.48;;
29358;SDS011;16347;53.232;6.556;2022-09-09T14:10:35;6.57;;;1.58;;
29358;SDS011;16347;53.232;6.556;2022-09-09T14:13:10;3.60;;;0.85;;
29358;SDS011;16347;53.232;6.556;2022-09-09T14:15:50;4.20;;;0.95;;
29358;SDS011;16347;53.232;6.556;2022-09-09T14:18:45;7.22;;;2.17;;
29358;SDS011;16347;53.232;6.556;2022-09-09T14:21:28;12.25;;;3.40;;
29358;SDS011;16347;53.232;6.556;2022-09-09T14:24:06;19.95;;;8.95;;
29358;SDS011;16347;53.232;6.556;2022-09-09T14:26:46;8.65;;;3.95;;
29358;SDS011;16347;53.232;6.556;2022-09-09T14:29:41;6.55;;;1.52;;
29358;SDS011;16347;53.232;6.556;2022-09-09T14:32:11;11.15;;;5.05;;
29358;SDS011;16347;53.232;6.556;2022-09-09T14:34:53;5.88;;;2.10;;
29358;SDS011;16347;53.232;6.556;2022-09-09T14:37:38;4.45;;;1.55;;
29358;SDS011;16347;53.232;6.556;2022-09-09T14:40:20;6.45;;;1.60;;
29358;SDS011;16347;53.232;6.556;2022-09-09T14:42:49;5.00;;;1.23;;
29358;SDS011;16347;53.232;6.556;2022-09-09T14:45:23;4.47;;;1.35;;
29358;SDS011;16347;53.232;6.556;2022-09-09T14:47:55;5.15;;;1.42;;
29358;SDS011;16347;53.232;6.556;2022-09-09T14:50:28;4.00;;;0.93;;
29358;SDS011;16347;53.232;6.556;2022-09-09T14:52:58;6.40;;;1.00;;
29358;SDS011;16347;53.232;6.556;2022-09-09T14:55:28;2.35;;;0.60;;
29358;SDS011;16347;53.232;6.556;2022-09-09T14:57:59;4.15;;;1.02;;
29358;SDS011;16347;53.232;6.556;2022-09-09T15:00:30;4.78;;;0.80;;
29358;SDS011;16347;53.232;6.556;2022-09-09T15:02:59;1.70;;;0.50;;
29358;SDS011;16347;53.232;6.556;2022-09-09T15:05:32;1.80;;;0.52;;
29358;SDS011;16347;53.232;6.556;2022-09-09T15:08:02;2.72;;;0.50;;
29358;SDS011;16347;53.232;6.556;2022-09-09T15:10:31;1.23;;;0.52;;
29358;SDS011;16347;53.232;6.556;2022-09-09T15:13:00;1.73;;;0.50;;
29358;SDS011;16347;53.232;6.556;2022-09-09T15:15:32;6.88;;;1.33;;
29358;SDS011;16347;53.232;6.556;2022-09-09T15:18:04;2.78;;;0.93;;
29358;SDS011;16347;53.232;6.556;2022-09-09T15:20:36;3.78;;;0.85;;
29358;SDS011;16347;53.232;6.556;2022-09-09T15:23:06;3.25;;;0.88;;
29358;SDS011;16347;53.232;6.556;2022-09-09T15:25:36;4.93;;;0.95;;
29358;SDS011;16347;53.232;6.556;2022-09-09T15:28:08;4.45;;;1.13;;
29358;SDS011;16347;53.232;6.556;2022-09-09T15:30:38;7.90;;;1.13;;
29358;SDS011;16347;53.232;6.556;2022-09-09T15:33:09;4.03;;;1.20;;
29358;SDS011;16347;53.232;6.556;2022-09-09T15:35:38;7.55;;;1.73;;
29358;SDS011;16347;53.232;6.556;2022-09-09T15:38:08;4.13;;;1.40;;
29358;SDS011;16347;53.232;6.556;2022-09-09T15:40:38;6.38;;;1.67;;
29358;SDS011;16347;53.232;6.556;2022-09-09T15:43:09;4.90;;;1.65;;
29358;SDS011;16347;53.232;6.556;2022-09-09T15:45:41;6.63;;;1.73;;
29358;SDS011;16347;53.232;6.556;2022-09-09T15:48:11;5.60;;;1.35;;
29358;SDS011;16347;53.232;6.556;2022-09-09T15:50:44;5.90;;;1.73;;
29358;SDS011;16347;53.232;6.556;2022-09-09T15:53:14;4.10;;;1.20;;
29358;SDS011;16347;53.232;6.556;2022-09-09T15:55:45;3.17;;;1.50;;
29358;SDS011;16347;53.232;6.556;2022-09-09T15:58:19;4.22;;;1.00;;
29358;SDS011;16347;53.232;6.556;2022-09-09T16:00:50;4.18;;;1.77;;
29358;SDS011;16347;53.232;6.556;2022-09-09T16:03:19;4.30;;;0.93;;
29358;SDS011;16347;53.232;6.556;2022-09-09T16:05:51;3.55;;;1.20;;
29358;SDS011;16347;53.232;6.556;2022-09-09T16:08:19;7.38;;;1.10;;